Terminal Aerodrome Forecast
Issued by NWS

Current Version | Previous Version | Text Only | Print | Product List | Glossary On
Versions: 1 2 3 4 5 6 7 8 9 10 11 12 13 14 15 16 17 18 19 20 21 22 23 24 25 26 27 28 29 30 31 32 33 34
000
FTAK31 PANC 161137
TAFADU
TAF
PADU 161137Z 1612/1712 23007KT P6SM -SHRA SCT015 BKN025
     FM161500 27010G20KT P6SM -SHRA BKN025
     FM162100 28020G30KT P6SM -SHRA BKN025
     FM170900 29012KT P6SM SCT015 OVC030=

USA.gov is the U.S. government's official web portal to all federal, state and local government web resources and services.